Météo Nord-Pas-de-Calais   La météo au plus près de chez vous

Station météorologique

Observations météo à Leran (09161)

09161003 391 m Dernier relevé à 21:30
20.9°C
Humidité 44 % Vent 2.2 km/h

Journée consultée

Jeudi 3 Septembre 2026

Synthèse de la journée

Périodes de référence en UTC

Température maximale

31.5°C

à 17:30

06h 06h

Température minimale

12.6°C

à 07:24

18h 18h

Rafale maximale

27 km/h

à 17:06

00h 00h

Précipitations

0 mm

Cumul quotidien

06h 06h

Graphiques de la journée

Heure locale Réduire

Données détaillées

Relevés météo

Pas de 6 minutes Afficher les relevés infra-horaires
Relevés météo détaillés à Leran pour le Jeudi 3 Septembre 2026
Heure Température °C Point de rosée °C Humidité % Vent moyen (raf.), km/h Précipitations mm
21:30 20.9 °C 11.5 °C 55 % 3 km/h (6 km/h) 0 mm0 mm
21:24 21.2 °C 10.9 °C 52 % 4 km/h (6 km/h) 0 mm0 mm
21:18 21.6 °C 11 °C 51 % 5 km/h (8 km/h) 0 mm0 mm
21:12 21.9 °C 11 °C 50 % 7 km/h (10 km/h) 0 mm0 mm
21:06 22.1 °C 10.9 °C 49 % 7 km/h (10 km/h) 0 mm0 mm
21:00 22.3 °C 11.1 °C 49 % 6 km/h (8 km/h) 0 mm0 mm
20:54 22.3 °C 11.4 °C 50 % 5 km/h (8 km/h) 0 mm0 mm
20:48 23 °C 11.4 °C 48 % 3 km/h (6 km/h) 0 mm0 mm
20:42 23.4 °C 11.1 °C 46 % 4 km/h (5 km/h) 0 mm0 mm
20:36 24.1 °C 11.8 °C 46 % 3 km/h (5 km/h) 0 mm0 mm
20:30 24.5 °C 11.4 °C 44 % 2 km/h (5 km/h) 0 mm0 mm
20:24 25.4 °C 11.9 °C 43 % 2 km/h (5 km/h) 0 mm0 mm
20:18 26.2 °C 11.5 °C 40 % 3 km/h (8 km/h) 0 mm0 mm
20:12 26.7 °C 10.4 °C 36 % 4 km/h (8 km/h) 0 mm0 mm
20:06 27.4 °C 10.6 °C 35 % 4 km/h (7 km/h) 0 mm0 mm
20:00 27.9 °C 9.7 °C 32 % 4 km/h (9 km/h) 0 mm0 mm
19:54 28.3 °C 9.6 °C 31 % 4 km/h (9 km/h) 0 mm0 mm
19:48 29 °C 10.2 °C 31 % 5 km/h (10 km/h) 0 mm0 mm
19:42 29.4 °C 9.5 °C 29 % 6 km/h (11 km/h) 0 mm0 mm
19:36 29.6 °C 9.2 °C 28 % 5 km/h (11 km/h) 0 mm0 mm
19:30 30 °C 10 °C 29 % 4 km/h (13 km/h) 0 mm0 mm
19:24 30.1 °C 9.6 °C 28 % 6 km/h (12 km/h) 0 mm0 mm
19:18 30.2 °C 9.1 °C 27 % 6 km/h (15 km/h) 0 mm0 mm
19:12 30.1 °C 9 °C 27 % 8 km/h (15 km/h) 0 mm0 mm
19:06 30.2 °C 8.6 °C 26 % 9 km/h (16 km/h) 0 mm0 mm
19:00 30.4 °C 8.7 °C 26 % 7 km/h (16 km/h) 0 mm0 mm
18:54 31 °C 8.7 °C 25 % 5 km/h (15 km/h) 0 mm0 mm
18:48 30.6 °C 8.3 °C 25 % 7 km/h (16 km/h) 0 mm0 mm
18:42 30.8 °C 9.1 °C 26 % 8 km/h (16 km/h) 0 mm0 mm
18:36 30.7 °C 8.4 °C 25 % 8 km/h (17 km/h) 0 mm0 mm
18:30 30.8 °C 8.5 °C 25 % 10 km/h (17 km/h) 0 mm0 mm
18:24 30.8 °C 8.5 °C 25 % 10 km/h (18 km/h) 0 mm0 mm
18:18 30.9 °C 8.6 °C 25 % 11 km/h (20 km/h) 0 mm0 mm
18:12 31 °C 8.7 °C 25 % 9 km/h (20 km/h) 0 mm0 mm
18:06 31 °C 9.2 °C 26 % 9 km/h (17 km/h) 0 mm0 mm
18:00 31.2 °C 9.4 °C 26 % 9 km/h (17 km/h) 0 mm0 mm
17:54 31 °C 10.4 °C 28 % 9 km/h (16 km/h) 0 mm0 mm
17:48 31 °C 10.9 °C 29 % 9 km/h (17 km/h) 0 mm0 mm
17:42 31.2 °C 10.5 °C 28 % 10 km/h (18 km/h) 0 mm0 mm
17:36 31.3 °C 10.6 °C 28 % 9 km/h (18 km/h) 0 mm0 mm
17:30 31.5 °C 10.8 °C 28 % 9 km/h (18 km/h) 0 mm0 mm
17:24 31 °C 10.9 °C 29 % 9 km/h (18 km/h) 0 mm0 mm
17:18 30.9 °C 11.3 °C 30 % 8 km/h (18 km/h) 0 mm0 mm
17:12 31 °C 11.4 °C 30 % 9 km/h (23 km/h) 0 mm0 mm
17:06 30.4 °C 11.4 °C 31 % 11 km/h (27 km/h) 0 mm0 mm
17:00 31.2 °C 11.6 °C 30 % 7 km/h (23 km/h) 0 mm0 mm
16:54 30.9 °C 11.8 °C 31 % 9 km/h (18 km/h) 0 mm0 mm
16:48 30.5 °C 11.9 °C 32 % 10 km/h (21 km/h) 0 mm0 mm
16:42 30.4 °C 11.9 °C 32 % 8 km/h (17 km/h) 0 mm0 mm
16:36 30.5 °C 11.9 °C 32 % 10 km/h (21 km/h) 0 mm0 mm
16:30 30.2 °C 12.1 °C 33 % 9 km/h (21 km/h) 0 mm0 mm
16:24 30.7 °C 12.6 °C 33 % 8 km/h (19 km/h) 0 mm0 mm
16:18 31 °C 12.8 °C 33 % 8 km/h (17 km/h) 0 mm0 mm
16:12 30.5 °C 12.9 °C 34 % 9 km/h (19 km/h) 0 mm0 mm
16:06 30.4 °C 12.8 °C 34 % 9 km/h (19 km/h) 0 mm0 mm
16:00 30.5 °C 12.9 °C 34 % 8 km/h (21 km/h) 0 mm0 mm
15:54 30 °C 12.9 °C 35 % 9 km/h (21 km/h) 0 mm0 mm
15:48 29.9 °C 12.8 °C 35 % 9 km/h (19 km/h) 0 mm0 mm
15:42 30 °C 12.9 °C 35 % 9 km/h (19 km/h) 0 mm0 mm
15:36 30.5 °C 13.3 °C 35 % 8 km/h (18 km/h) 0 mm0 mm
15:30 30.4 °C 13.2 °C 35 % 9 km/h (23 km/h) 0 mm0 mm
15:24 29.5 °C 12.9 °C 36 % 11 km/h (24 km/h) 0 mm0 mm
15:18 29.8 °C 12.7 °C 35 % 10 km/h (18 km/h) 0 mm0 mm
15:12 30.1 °C 13.8 °C 37 % 10 km/h (22 km/h) 0 mm0 mm
15:06 29.7 °C 13 °C 36 % 9 km/h (22 km/h) 0 mm0 mm
15:00 29.5 °C 12.9 °C 36 % 10 km/h (23 km/h) 0 mm0 mm
14:54 29.6 °C 13.4 °C 37 % 9 km/h (23 km/h) 0 mm0 mm
14:48 29.7 °C 13.5 °C 37 % 9 km/h (19 km/h) 0 mm0 mm
14:42 29.2 °C 13 °C 37 % 11 km/h (21 km/h) 0 mm0 mm
14:36 29.2 °C 13.4 °C 38 % 10 km/h (19 km/h) 0 mm0 mm
14:30 29.2 °C 13.8 °C 39 % 10 km/h (22 km/h) 0 mm0 mm
14:24 29.1 °C 13.3 °C 38 % 9 km/h (22 km/h) 0 mm0 mm
14:18 29 °C 14 °C 40 % 8 km/h (21 km/h) 0 mm0 mm
14:12 28.9 °C 13.6 °C 39 % 8 km/h (19 km/h) 0 mm0 mm
14:06 29.5 °C 14.1 °C 39 % 7 km/h (16 km/h) 0 mm0 mm
14:00 28.6 °C 13.7 °C 40 % 9 km/h (17 km/h) 0 mm0 mm
13:54 28.4 °C 13.5 °C 40 % 10 km/h (17 km/h) 0 mm0 mm
13:48 28.7 °C 13.8 °C 40 % 9 km/h (17 km/h) 0 mm0 mm
13:42 28.4 °C 13.9 °C 41 % 8 km/h (22 km/h) 0 mm0 mm
13:36 28.1 °C 14 °C 42 % 9 km/h (21 km/h) 0 mm0 mm
13:30 27.6 °C 13.9 °C 43 % 11 km/h (21 km/h) 0 mm0 mm
13:24 27.8 °C 14.1 °C 43 % 10 km/h (20 km/h) 0 mm0 mm
13:18 27.8 °C 14.1 °C 43 % 10 km/h (20 km/h) 0 mm0 mm
13:12 27.8 °C 14.1 °C 43 % 9 km/h (27 km/h) 0 mm0 mm
13:06 27.8 °C 14.1 °C 43 % 8 km/h (27 km/h) 0 mm0 mm
13:00 28.3 °C 14.2 °C 42 % 6 km/h (16 km/h) 0 mm0 mm
12:54 27.6 °C 13.9 °C 43 % 9 km/h (19 km/h) 0 mm0 mm
12:48 27.1 °C 13.8 °C 44 % 10 km/h (19 km/h) 0 mm0 mm
12:42 27 °C 13.4 °C 43 % 10 km/h (21 km/h) 0 mm0 mm
12:36 27.5 °C 13.8 °C 43 % 8 km/h (17 km/h) 0 mm0 mm
12:30 27.5 °C 13.8 °C 43 % 9 km/h (19 km/h) 0 mm0 mm
12:24 26.8 °C 13.2 °C 43 % 9 km/h (19 km/h) 0 mm0 mm
12:18 27.1 °C 13.1 °C 42 % 8 km/h (17 km/h) 0 mm0 mm
12:12 27.1 °C 13.4 °C 43 % 8 km/h (17 km/h) 0 mm0 mm
12:06 26.9 °C 13.3 °C 43 % 7 km/h (16 km/h) 0 mm0 mm
12:00 26.6 °C 13 °C 43 % 8 km/h (15 km/h) 0 mm0 mm
11:54 26.5 °C 13.3 °C 44 % 8 km/h (15 km/h) 0 mm0 mm
11:48 26.3 °C 12.7 °C 43 % 7 km/h (15 km/h) 0 mm0 mm
11:42 26.4 °C 13.2 °C 44 % 6 km/h (13 km/h) 0 mm0 mm
11:36 26.5 °C 13.3 °C 44 % 7 km/h (15 km/h) 0 mm0 mm
11:30 26.2 °C 13.3 °C 45 % 8 km/h (15 km/h) 0 mm0 mm
11:24 25.9 °C 13.1 °C 45 % 8 km/h (15 km/h) 0 mm0 mm
11:18 25.6 °C 13.4 °C 47 % 9 km/h (17 km/h) 0 mm0 mm
11:12 25.3 °C 13.5 °C 48 % 9 km/h (17 km/h) 0 mm0 mm
11:06 24.9 °C 13.1 °C 48 % 9 km/h (16 km/h) 0 mm0 mm
11:00 25 °C 12.9 °C 47 % 8 km/h (15 km/h) 0 mm0 mm
10:54 24.9 °C 12.8 °C 47 % 6 km/h (12 km/h) 0 mm0 mm
10:48 25 °C 13.9 °C 50 % 6 km/h (10 km/h) 0 mm0 mm
10:42 24.4 °C 13.9 °C 52 % 6 km/h (13 km/h) 0 mm0 mm
10:36 24.2 °C 14 °C 53 % 5 km/h (13 km/h) 0 mm0 mm
10:30 24 °C 15 °C 57 % 3 km/h (9 km/h) 0 mm0 mm
10:24 23.3 °C 14.6 °C 58 % 6 km/h (9 km/h) 0 mm0 mm
10:18 23 °C 14.6 °C 59 % 6 km/h (9 km/h) 0 mm0 mm
10:12 22.7 °C 14.5 °C 60 % 5 km/h (9 km/h) 0 mm0 mm
10:06 22.4 °C 14.8 °C 62 % 4 km/h (9 km/h) 0 mm0 mm
10:00 22 °C 14.6 °C 63 % 4 km/h (8 km/h) 0 mm0 mm
09:54 21.7 °C 14.3 °C 63 % 4 km/h (7 km/h) 0 mm0 mm
09:48 21.7 °C 14.6 °C 64 % 3 km/h (7 km/h) 0 mm0 mm
09:42 21.3 °C 14.7 °C 66 % 2 km/h (4 km/h) 0 mm0 mm
09:36 20.9 °C 14.8 °C 68 % 2 km/h (5 km/h) 0 mm0 mm
09:30 20.5 °C 15.1 °C 71 % 2 km/h (5 km/h) 0 mm0 mm
09:24 20.1 °C 14.9 °C 72 % 3 km/h (5 km/h) 0 mm0 mm
09:18 20 °C 15 °C 73 % 2 km/h (4 km/h) 0 mm0 mm
09:12 19.6 °C 15.3 °C 76 % 0 km/h (6 km/h) 0 mm0 mm
09:06 18.8 °C 14.7 °C 77 % 0 km/h (6 km/h) 0 mm0 mm
09:00 18.4 °C 15.1 °C 81 % 0 km/h (4 km/h) 0 mm0 mm
08:54 18 °C 15.1 °C 83 % 0 km/h (4 km/h) 0 mm0 mm
08:48 17.1 °C 14.4 °C 84 % 0 km/h (3 km/h) 0 mm0 mm
08:42 16.4 °C 14.1 °C 86 % 0 km/h (3 km/h) 0 mm0 mm
08:36 15.8 °C 14 °C 89 % 0 km/h (3 km/h) 0 mm0 mm
08:30 15.6 °C 14.1 °C 91 % 0 km/h (2 km/h) 0 mm0 mm
08:24 14.7 °C 13.2 °C 91 % 0 km/h (3 km/h) 0 mm0 mm
08:18 14.6 °C 13.1 °C 91 % 0 km/h (3 km/h) 0 mm0 mm
08:12 14.2 °C 12.9 °C 92 % 0 km/h (3 km/h) 0 mm0 mm
08:06 14 °C 12.9 °C 93 % 0 km/h (2 km/h) 0 mm0 mm
08:00 13.6 °C 12.5 °C 93 % 0 km/h (3 km/h) 0 mm0 mm
07:54 13.5 °C 12.7 °C 95 % 0 km/h (3 km/h) 0 mm0 mm
07:48 13.1 °C 12.3 °C 95 % 0 km/h (3 km/h) 0 mm0 mm
07:42 12.8 °C 11.9 °C 94 % 0 km/h (3 km/h) 0 mm0 mm
07:36 12.8 °C 12 °C 95 % 0 km/h (4 km/h) 0 mm0 mm
07:30 12.8 °C 12 °C 95 % 0 km/h (4 km/h) 0 mm0 mm
07:24 12.6 °C 11.5 °C 93 % 0 km/h (3 km/h) 0 mm0 mm
07:18 12.7 °C 11.8 °C 94 % 2 km/h (5 km/h) 0 mm0 mm
07:12 12.7 °C 11.8 °C 94 % 4 km/h (6 km/h) 0 mm0 mm
07:06 12.7 °C 11.6 °C 93 % 4 km/h (7 km/h) 0 mm0 mm
07:00 13 °C 12.1 °C 94 % 3 km/h (5 km/h) 0 mm0.2 mm
06:54 13.1 °C 12.3 °C 95 % 0 km/h (4 km/h) 0.2 mm0 mm
06:48 13.1 °C 12.2 °C 94 % 0 km/h (2 km/h) 0 mm0 mm
06:42 13.4 °C 12.6 °C 95 % 0 km/h (2 km/h) 0 mm0 mm
06:36 13.4 °C 12.5 °C 94 % 0 km/h (2 km/h) 0 mm0 mm
06:30 13.5 °C 12.6 °C 94 % 0 km/h (2 km/h) 0 mm0 mm
06:24 13.6 °C 12.8 °C 95 % 0 km/h (2 km/h) 0 mm0 mm
06:18 13.6 °C 12.7 °C 94 % 0 km/h (3 km/h) 0 mm0 mm
06:12 13.6 °C 12.7 °C 94 % 0 km/h (3 km/h) 0 mm0 mm
06:06 13.5 °C 12.4 °C 93 % 2 km/h (4 km/h) 0 mm0 mm
06:00 13.3 °C 11.9 °C 91 % 3 km/h (4 km/h) 0 mm0 mm
05:54 13.6 °C 12.3 °C 92 % 2 km/h (4 km/h) 0 mm0 mm
05:48 13.6 °C 12.3 °C 92 % 0 km/h (4 km/h) 0 mm0 mm
05:42 14 °C 12.9 °C 93 % 0 km/h (3 km/h) 0 mm0 mm
05:36 14 °C 12.9 °C 93 % 0 km/h (2 km/h) 0 mm0 mm
05:30 13.8 °C 12.2 °C 90 % 0 km/h (3 km/h) 0 mm0 mm
05:24 14 °C 12.6 °C 91 % 0 km/h (3 km/h) 0 mm0 mm
05:18 14.2 °C 13.1 °C 93 % 0 km/h (2 km/h) 0 mm0 mm
05:12 14.1 °C 12.7 °C 91 % 0 km/h (2 km/h) 0 mm0 mm
05:06 14 °C 12.4 °C 90 % 0 km/h (2 km/h) 0 mm0 mm
05:00 14.3 °C 12.7 °C 90 % 0 km/h (3 km/h) 0 mm0 mm
04:54 14.6 °C 13.5 °C 93 % 0 km/h (3 km/h) 0 mm0 mm
04:48 14.6 °C 13.3 °C 92 % 0 km/h (0 km/h) 0 mm0 mm
04:42 14.6 °C 13.1 °C 91 % 0 km/h (3 km/h) 0 mm0 mm
04:36 14.7 °C 13.2 °C 91 % 0 km/h (3 km/h) 0 mm0 mm
04:30 14.8 °C 13.3 °C 91 % 0 km/h (0 km/h) 0 mm0 mm
04:24 14.9 °C 13.4 °C 91 % 0 km/h (3 km/h) 0 mm0 mm
04:18 15.1 °C 13.8 °C 92 % 0 km/h (3 km/h) 0 mm0 mm
04:12 15.1 °C 13.6 °C 91 % 0 km/h (3 km/h) 0 mm0 mm
04:06 15.2 °C 13.7 °C 91 % 0 km/h (3 km/h) 0 mm0 mm
04:00 15 °C 12.9 °C 87 % 0 km/h (2 km/h) 0 mm0 mm
03:54 15.1 °C 13.1 °C 88 % 0 km/h (2 km/h) 0 mm0 mm
03:48 15.4 °C 13.6 °C 89 % 0 km/h (3 km/h) 0 mm0 mm
03:42 15.6 °C 14 °C 90 % 0 km/h (3 km/h) 0 mm0 mm
03:36 15.5 °C 13.5 °C 88 % 0 km/h (2 km/h) 0 mm0 mm
03:30 15.7 °C 13.7 °C 88 % 0 km/h (0 km/h) 0 mm0 mm
03:24 15.8 °C 13.8 °C 88 % 0 km/h (0 km/h) 0 mm0 mm
03:18 15.9 °C 13.9 °C 88 % 0 km/h (0 km/h) 0 mm0 mm
03:12 15.9 °C 13.6 °C 86 % 0 km/h (2 km/h) 0 mm0 mm
03:06 16.1 °C 13.8 °C 86 % 0 km/h (0 km/h) 0 mm0 mm
03:00 16.2 °C 13.7 °C 85 % 0 km/h (0 km/h) 0 mm0 mm
02:54 16.5 °C 14.1 °C 86 % 0 km/h (0 km/h) 0 mm0 mm
02:48 16.7 °C 14.3 °C 86 % 0 km/h (0 km/h) 0 mm0 mm
02:42 16.8 °C 14.1 °C 84 % 0 km/h (2 km/h) 0 mm0 mm
02:36 16.7 °C 13 °C 79 % 0 km/h (3 km/h) 0 mm0 mm
02:30 16.8 °C 13.1 °C 79 % 0 km/h (3 km/h) 0 mm0 mm
02:24 16.9 °C 13.2 °C 79 % 0 km/h (2 km/h) 0 mm0 mm
02:18 17 °C 13.3 °C 79 % 0 km/h (2 km/h) 0 mm0 mm
02:12 17 °C 13.1 °C 78 % 0 km/h (2 km/h) 0 mm0 mm
02:06 17.1 °C 13.4 °C 79 % 0 km/h (2 km/h) 0 mm0 mm
02:00 17.1 °C 13.2 °C 78 % 0 km/h (2 km/h) 0 mm0 mm
01:54 17.2 °C 13.1 °C 77 % 0 km/h (0 km/h) 0 mm0 mm
01:48 17.3 °C 13.6 °C 79 % 0 km/h (3 km/h) 0 mm0 mm
01:42 17.7 °C 14.6 °C 82 % 0 km/h (3 km/h) 0 mm0 mm
01:36 17.9 °C 14.6 °C 81 % 0 km/h (3 km/h) 0 mm0 mm
01:30 17.9 °C 14.2 °C 79 % 0 km/h (3 km/h) 0 mm0 mm
01:24 18.1 °C 14.4 °C 79 % 0 km/h (2 km/h) 0 mm0 mm
01:18 18.2 °C 14.5 °C 79 % 0 km/h (2 km/h) 0 mm0 mm
01:12 18.4 °C 13.9 °C 75 % 0 km/h (3 km/h) 0 mm0 mm
01:06 18.5 °C 13.8 °C 74 % 0 km/h (3 km/h) 0 mm0 mm
01:00 18.7 °C 14.2 °C 75 % 0 km/h (3 km/h) 0 mm0 mm
00:54 18.7 °C 13.1 °C 70 % 0 km/h (3 km/h) 0 mm0 mm
00:48 19 °C 13.6 °C 71 % 0 km/h (4 km/h) 0 mm0 mm
00:42 19.1 °C 13.5 °C 70 % 2 km/h (5 km/h) 0 mm0 mm
00:36 19.3 °C 13.7 °C 70 % 3 km/h (5 km/h) 0 mm0 mm
00:30 19.5 °C 13.7 °C 69 % 4 km/h (6 km/h) 0 mm0 mm
00:24 19.7 °C 13.6 °C 68 % 3 km/h (6 km/h) 0 mm0 mm
00:18 20 °C 13.7 °C 67 % 3 km/h (4 km/h) 0 mm0 mm
00:12 20.3 °C 13.5 °C 65 % 4 km/h (7 km/h) 0 mm0 mm
00:06 20.6 °C 13.5 °C 64 % 6 km/h (9 km/h) 0 mm0 mm
00:00 20.6 °C 13.5 °C 64 % 6 km/h (9 km/h) 0 mm0 mm

Données via Météo-France

Relevés météo à Leran

Cette page rassemble les observations de la station de Leran : température, humidité, vent, précipitations et pression atmosphérique. Les graphiques facilitent le suivi de la journée, tandis que le tableau donne accès aux mesures horaires et infra-horaires disponibles.

Pour replacer ces mesures dans leur contexte, consultez la climatologie de Leran ainsi que ses normales et records. Retrouvez aussi la carte des observations météo en temps réel.